Time,TemperatureF,DewpointF,PressureIn,WindDirection,WindDirectionDegrees,WindSpeedMPH,WindSpeedGustMPH,Humidity,HourlyPrecipIn,Conditions,Clouds,dailyrainin,SolarRadiationWatts/m^2,SoftwareType,DateUTC
2013-11-16 00:04:00,45.8,37.0,30.40,WNW,285,0.0,-999.0,71,0.00,,,0.00,0,WeatherHawk,2013-11-16 05:04:00,
2013-11-16 00:09:00,45.6,36.7,30.40,WNW,284,0.0,-999.0,71,0.00,,,0.00,0,WeatherHawk,2013-11-16 05:09:00,
2013-11-16 00:14:00,45.6,37.1,30.39,West,268,0.0,-999.0,72,0.00,,,0.00,0,WeatherHawk,2013-11-16 05:14:00,
2013-11-16 00:19:00,45.7,37.5,30.40,East,81,0.0,-999.0,73,0.00,,,0.00,0,WeatherHawk,2013-11-16 05:19:00,
2013-11-16 00:24:00,45.4,37.6,30.41,WNW,284,0.0,-999.0,74,0.00,,,0.00,0,WeatherHawk,2013-11-16 05:24:00,
2013-11-16 00:29:00,45.4,37.6,30.41,WNW,284,0.0,-999.0,74,0.00,,,0.00,1,WeatherHawk,2013-11-16 05:29:00,
2013-11-16 00:34:00,45.5,38.0,30.40,North,3,0.0,-999.0,75,0.00,,,0.00,0,WeatherHawk,2013-11-16 05:34:00,
2013-11-16 00:39:00,45.5,38.1,30.40,North,350,0.0,-999.0,75,0.00,,,0.00,0,WeatherHawk,2013-11-16 05:39:00,
2013-11-16 00:44:00,45.5,38.4,30.40,North,350,0.0,-999.0,76,0.00,,,0.00,1,WeatherHawk,2013-11-16 05:44:00,
2013-11-16 00:49:00,45.5,38.4,30.39,North,350,0.0,-999.0,76,0.00,,,0.00,0,WeatherHawk,2013-11-16 05:49:00,
2013-11-16 00:54:00,45.5,38.4,30.40,North,350,0.0,-999.0,76,0.00,,,0.00,0,WeatherHawk,2013-11-16 05:54:00,
2013-11-16 00:59:00,45.2,37.7,30.40,NNW,346,0.0,-999.0,75,0.00,,,0.00,0,WeatherHawk,2013-11-16 05:59:00,
2013-11-16 01:04:00,45.9,38.8,30.40,NNW,346,0.0,-999.0,76,0.00,,,0.00,0,WeatherHawk,2013-11-16 06:04:00,
2013-11-16 01:09:00,44.6,37.5,30.40,NNW,346,0.0,-999.0,76,0.00,,,0.00,0,WeatherHawk,2013-11-16 06:09:00,
2013-11-16 01:14:00,44.5,37.4,30.41,NNW,346,0.0,-999.0,76,0.00,,,0.00,0,WeatherHawk,2013-11-16 06:14:00,
2013-11-16 01:19:00,43.9,36.8,30.41,NNW,346,0.0,-999.0,76,0.00,,,0.00,1,WeatherHawk,2013-11-16 06:19:00,
2013-11-16 01:24:00,43.3,36.2,30.40,NNW,346,0.0,-999.0,76,0.00,,,0.00,0,WeatherHawk,2013-11-16 06:24:00,
2013-11-16 01:29:00,43.2,36.5,30.40,NW,307,0.0,-999.0,77,0.00,,,0.00,0,WeatherHawk,2013-11-16 06:29:00,
2013-11-16 01:34:00,43.3,37.2,30.41,NW,314,0.0,-999.0,79,0.00,,,0.00,0,WeatherHawk,2013-11-16 06:34:00,
2013-11-16 01:39:00,43.0,37.3,30.41,SW,233,0.0,-999.0,80,0.00,,,0.00,0,WeatherHawk,2013-11-16 06:39:00,
2013-11-16 01:44:00,42.8,37.0,30.40,SW,233,0.0,-999.0,80,0.00,,,0.00,1,WeatherHawk,2013-11-16 06:44:00,
2013-11-16 01:49:00,42.8,37.4,30.41,North,7,0.0,-999.0,81,0.00,,,0.00,0,WeatherHawk,2013-11-16 06:49:00,
2013-11-16 01:54:00,42.0,36.9,30.41,North,7,0.0,-999.0,82,0.00,,,0.00,1,WeatherHawk,2013-11-16 06:54:00,
2013-11-16 01:59:00,42.4,37.6,30.41,North,7,0.0,-999.0,83,0.00,,,0.00,1,WeatherHawk,2013-11-16 06:59:00,
2013-11-16 02:04:00,42.1,37.6,30.41,North,7,0.0,-999.0,84,0.00,,,0.00,0,WeatherHawk,2013-11-16 07:04:00,
2013-11-16 02:09:00,42.2,37.8,30.41,North,7,0.0,-999.0,84,0.00,,,0.00,0,WeatherHawk,2013-11-16 07:09:00,
2013-11-16 02:14:00,42.5,38.4,30.41,North,7,0.0,-999.0,85,0.00,,,0.00,0,WeatherHawk,2013-11-16 07:14:00,
2013-11-16 02:19:00,41.9,38.0,30.42,North,7,0.0,-999.0,86,0.00,,,0.00,0,WeatherHawk,2013-11-16 07:19:00,
2013-11-16 02:24:00,42.0,38.1,30.41,NNE,12,0.0,-999.0,86,0.00,,,0.00,1,WeatherHawk,2013-11-16 07:24:00,
2013-11-16 02:29:00,41.9,38.3,30.41,NNE,12,0.0,-999.0,87,0.00,,,0.00,0,WeatherHawk,2013-11-16 07:29:00,
2013-11-16 02:34:00,42.2,38.6,30.41,NNE,15,0.0,-999.0,87,0.00,,,0.00,0,WeatherHawk,2013-11-16 07:34:00,
2013-11-16 02:39:00,41.7,38.4,30.41,WNW,302,0.0,-999.0,88,0.00,,,0.00,0,WeatherHawk,2013-11-16 07:39:00,
2013-11-16 02:44:00,41.7,38.4,30.41,WNW,290,0.0,-999.0,88,0.00,,,0.00,0,WeatherHawk,2013-11-16 07:44:00,
2013-11-16 02:49:00,41.7,38.4,30.41,WNW,285,0.0,-999.0,88,0.00,,,0.00,0,WeatherHawk,2013-11-16 07:49:00,
2013-11-16 02:54:00,42.0,39.0,30.41,NE,39,0.0,-999.0,89,0.00,,,0.00,0,WeatherHawk,2013-11-16 07:54:00,
2013-11-16 02:59:00,41.5,38.5,30.41,WNW,300,0.0,-999.0,89,0.00,,,0.00,1,WeatherHawk,2013-11-16 07:59:00,
2013-11-16 03:04:00,42.4,39.7,30.41,SSE,154,0.0,-999.0,90,0.00,,,0.00,0,WeatherHawk,2013-11-16 08:04:00,
2013-11-16 03:09:00,42.0,39.3,30.40,SSE,154,0.0,-999.0,90,0.00,,,0.00,0,WeatherHawk,2013-11-16 08:09:00,
2013-11-16 03:14:00,42.0,39.3,30.41,East,99,0.0,-999.0,90,0.00,,,0.00,0,WeatherHawk,2013-11-16 08:14:00,
2013-11-16 03:19:00,42.1,39.4,30.40,WSW,238,0.0,-999.0,90,0.00,,,0.00,0,WeatherHawk,2013-11-16 08:19:00,
2013-11-16 03:24:00,42.0,39.6,30.41,WNW,288,0.0,-999.0,91,0.00,,,0.00,0,WeatherHawk,2013-11-16 08:24:00,
2013-11-16 03:29:00,41.9,39.5,30.41,East,100,0.0,-999.0,91,0.00,,,0.00,0,WeatherHawk,2013-11-16 08:29:00,
2013-11-16 03:34:00,42.0,39.6,30.39,East,100,0.0,-999.0,91,0.00,,,0.00,0,WeatherHawk,2013-11-16 08:34:00,
2013-11-16 03:39:00,42.1,39.7,30.40,East,100,0.0,-999.0,91,0.00,,,0.00,0,WeatherHawk,2013-11-16 08:39:00,
2013-11-16 03:44:00,42.0,39.6,30.40,East,100,0.0,-999.0,91,0.00,,,0.00,0,WeatherHawk,2013-11-16 08:44:00,
2013-11-16 03:49:00,41.9,39.5,30.39,East,100,0.0,-999.0,91,0.00,,,0.00,0,WeatherHawk,2013-11-16 08:49:00,
2013-11-16 03:54:00,42.0,39.8,30.39,NNE,29,0.0,-999.0,92,0.00,,,0.00,0,WeatherHawk,2013-11-16 08:54:00,
2013-11-16 03:59:00,42.5,40.3,30.39,NW,307,0.0,-999.0,92,0.00,,,0.00,0,WeatherHawk,2013-11-16 08:59:00,
2013-11-16 04:04:00,42.4,40.3,30.39,SW,234,0.0,-999.0,92,0.00,,,0.00,0,WeatherHawk,2013-11-16 09:04:00,
2013-11-16 04:09:00,42.3,40.1,30.38,South,182,0.0,-999.0,92,0.00,,,0.00,0,WeatherHawk,2013-11-16 09:09:00,
2013-11-16 04:14:00,42.6,40.5,30.38,South,181,0.0,-999.0,92,0.00,,,0.00,0,WeatherHawk,2013-11-16 09:14:00,
2013-11-16 04:19:00,41.8,39.6,30.38,South,181,0.0,-999.0,92,0.00,,,0.00,0,WeatherHawk,2013-11-16 09:19:00,
2013-11-16 04:24:00,42.1,39.9,30.39,South,181,0.0,-999.0,92,0.00,,,0.00,0,WeatherHawk,2013-11-16 09:24:00,
2013-11-16 04:29:00,41.9,39.8,30.39,South,172,0.0,-999.0,92,0.00,,,0.00,0,WeatherHawk,2013-11-16 09:29:00,
2013-11-16 04:34:00,41.5,39.4,30.39,South,172,0.0,-999.0,92,0.00,,,0.00,0,WeatherHawk,2013-11-16 09:34:00,
2013-11-16 04:39:00,41.6,39.4,30.39,South,172,0.0,-999.0,92,0.00,,,0.00,0,WeatherHawk,2013-11-16 09:39:00,
2013-11-16 04:44:00,41.6,39.7,30.40,South,172,0.0,-999.0,93,0.00,,,0.00,0,WeatherHawk,2013-11-16 09:44:00,
2013-11-16 04:49:00,41.5,39.6,30.40,SSE,147,0.0,-999.0,93,0.00,,,0.00,0,WeatherHawk,2013-11-16 09:49:00,
2013-11-16 04:54:00,41.4,39.5,30.40,ENE,59,0.0,-999.0,93,0.00,,,0.00,0,WeatherHawk,2013-11-16 09:54:00,
2013-11-16 04:59:00,41.3,39.4,30.40,ENE,59,0.0,-999.0,93,0.00,,,0.00,1,WeatherHawk,2013-11-16 09:59:00,
2013-11-16 05:04:00,41.3,39.4,30.41,ENE,59,0.0,-999.0,93,0.00,,,0.00,1,WeatherHawk,2013-11-16 10:04:00,
2013-11-16 05:09:00,41.4,39.5,30.41,ENE,59,0.0,-999.0,93,0.00,,,0.00,0,WeatherHawk,2013-11-16 10:09:00,
2013-11-16 05:14:00,41.7,39.8,30.41,ENE,59,0.0,-999.0,93,0.00,,,0.00,0,WeatherHawk,2013-11-16 10:14:00,
2013-11-16 05:19:00,41.3,39.4,30.40,ENE,59,0.0,-999.0,93,0.00,,,0.00,0,WeatherHawk,2013-11-16 10:19:00,
2013-11-16 05:24:00,41.1,39.2,30.41,ENE,59,0.0,-999.0,93,0.00,,,0.00,0,WeatherHawk,2013-11-16 10:24:00,
2013-11-16 05:29:00,40.8,39.0,30.40,ENE,59,0.0,-999.0,93,0.00,,,0.00,0,WeatherHawk,2013-11-16 10:29:00,
2013-11-16 05:34:00,41.0,39.2,30.40,ENE,59,0.0,-999.0,93,0.00,,,0.00,0,WeatherHawk,2013-11-16 10:34:00,
2013-11-16 05:39:00,41.6,40.0,30.40,ENE,59,0.0,-999.0,94,0.00,,,0.00,1,WeatherHawk,2013-11-16 10:39:00,
2013-11-16 05:44:00,41.2,39.6,30.40,ENE,59,0.0,-999.0,94,0.00,,,0.00,1,WeatherHawk,2013-11-16 10:44:00,
2013-11-16 05:49:00,41.1,39.5,30.40,ENE,61,0.0,-999.0,94,0.00,,,0.00,0,WeatherHawk,2013-11-16 10:49:00,
2013-11-16 05:54:00,41.2,39.6,30.41,NNE,17,0.0,-999.0,94,0.00,,,0.00,0,WeatherHawk,2013-11-16 10:54:00,
2013-11-16 05:59:00,41.3,39.7,30.40,NNE,17,0.0,-999.0,94,0.00,,,0.00,0,WeatherHawk,2013-11-16 10:59:00,
2013-11-16 06:04:00,41.6,40.0,30.40,WNW,288,0.0,-999.0,94,0.00,,,0.00,0,WeatherHawk,2013-11-16 11:04:00,
2013-11-16 06:09:00,41.4,39.8,30.40,WNW,288,0.0,-999.0,94,0.00,,,0.00,0,WeatherHawk,2013-11-16 11:09:00,
2013-11-16 06:14:00,41.8,40.2,30.40,WNW,288,0.0,-999.0,94,0.00,,,0.00,0,WeatherHawk,2013-11-16 11:14:00,
2013-11-16 06:19:00,41.5,39.9,30.40,NW,313,0.0,-999.0,94,0.00,,,0.00,0,WeatherHawk,2013-11-16 11:19:00,
2013-11-16 06:24:00,42.0,40.4,30.41,NW,313,0.0,-999.0,94,0.00,,,0.00,0,WeatherHawk,2013-11-16 11:24:00,
2013-11-16 06:29:00,42.1,40.5,30.41,NW,313,0.0,-999.0,94,0.00,,,0.00,0,WeatherHawk,2013-11-16 11:29:00,
2013-11-16 06:34:00,42.2,40.6,30.41,NW,313,0.0,-999.0,94,0.00,,,0.00,0,WeatherHawk,2013-11-16 11:34:00,
2013-11-16 06:39:00,42.5,40.9,30.40,NW,313,0.0,-999.0,94,0.00,,,0.00,0,WeatherHawk,2013-11-16 11:39:00,
2013-11-16 06:44:00,42.8,41.2,30.41,NW,313,0.0,-999.0,94,0.00,,,0.00,0,WeatherHawk,2013-11-16 11:44:00,
2013-11-16 06:49:00,42.6,41.0,30.41,NW,313,0.0,-999.0,94,0.00,,,0.00,0,WeatherHawk,2013-11-16 11:49:00,
2013-11-16 06:54:00,42.7,41.1,30.40,WNW,295,0.0,-999.0,94,0.00,,,0.00,0,WeatherHawk,2013-11-16 11:54:00,
2013-11-16 06:59:00,43.0,41.4,30.41,WNW,295,0.0,-999.0,94,0.00,,,0.00,0,WeatherHawk,2013-11-16 11:59:00,
2013-11-16 07:04:00,43.2,41.6,30.40,WNW,295,0.0,-999.0,94,0.00,,,0.00,0,WeatherHawk,2013-11-16 12:04:00,
2013-11-16 07:09:00,42.9,41.3,30.41,WNW,295,0.0,-999.0,94,0.00,,,0.00,1,WeatherHawk,2013-11-16 12:09:00,
2013-11-16 07:14:00,43.4,41.8,30.40,WNW,295,0.0,-999.0,94,0.00,,,0.00,1,WeatherHawk,2013-11-16 12:14:00,
2013-11-16 07:19:00,43.2,41.6,30.41,WNW,295,0.0,-999.0,94,0.00,,,0.00,1,WeatherHawk,2013-11-16 12:19:00,
2013-11-16 07:24:00,43.3,41.7,30.41,WNW,295,0.0,-999.0,94,0.00,,,0.00,3,WeatherHawk,2013-11-16 12:24:00,
2013-11-16 07:29:00,43.6,42.0,30.41,SSE,163,0.0,-999.0,94,0.00,,,0.00,6,WeatherHawk,2013-11-16 12:29:00,
2013-11-16 07:34:00,43.0,41.3,30.41,SSE,163,0.0,-999.0,94,0.00,,,0.00,12,WeatherHawk,2013-11-16 12:34:00,
2013-11-16 07:39:00,44.0,42.4,30.41,SSE,163,0.0,-999.0,94,0.00,,,0.00,16,WeatherHawk,2013-11-16 12:39:00,
2013-11-16 07:44:00,43.9,42.3,30.41,South,183,0.0,-999.0,94,0.00,,,0.00,19,WeatherHawk,2013-11-16 12:44:00,
2013-11-16 07:49:00,46.5,44.9,30.41,SE,137,0.0,-999.0,94,0.00,,,0.00,19,WeatherHawk,2013-11-16 12:49:00,
2013-11-16 07:54:00,43.2,41.6,30.41,SSE,165,0.0,-999.0,94,0.00,,,0.00,20,WeatherHawk,2013-11-16 12:54:00,
2013-11-16 07:59:00,44.1,42.5,30.42,SSE,165,0.0,-999.0,94,0.00,,,0.00,29,WeatherHawk,2013-11-16 12:59:00,
2013-11-16 08:04:00,44.9,43.2,30.41,SSE,165,0.0,-999.0,94,0.00,,,0.00,21,WeatherHawk,2013-11-16 13:04:00,
2013-11-16 08:09:00,44.0,42.2,30.41,SSE,165,0.0,-999.0,93,0.00,,,0.00,31,WeatherHawk,2013-11-16 13:09:00,
2013-11-16 08:14:00,44.9,43.0,30.41,SSE,165,0.0,-999.0,93,0.00,,,0.00,43,WeatherHawk,2013-11-16 13:14:00,
2013-11-16 08:19:00,45.2,43.0,30.42,NW,314,0.0,-999.0,92,0.00,,,0.00,56,WeatherHawk,2013-11-16 13:19:00,
2013-11-16 08:24:00,46.1,43.6,30.41,NW,314,0.0,-999.0,91,0.00,,,0.00,53,WeatherHawk,2013-11-16 13:24:00,
2013-11-16 08:29:00,46.4,43.3,30.42,SSW,194,0.0,-999.0,89,0.00,,,0.00,77,WeatherHawk,2013-11-16 13:29:00,
2013-11-16 08:34:00,45.8,41.9,30.41,SSW,194,0.0,-999.0,86,0.00,,,0.00,33,WeatherHawk,2013-11-16 13:34:00,
2013-11-16 08:39:00,46.2,41.0,30.41,South,186,0.0,-999.0,82,0.00,,,0.00,23,WeatherHawk,2013-11-16 13:39:00,
2013-11-16 08:44:00,46.4,39.6,30.41,South,186,0.0,-999.0,77,0.00,,,0.00,39,WeatherHawk,2013-11-16 13:44:00,
2013-11-16 08:49:00,46.6,38.1,30.42,South,186,0.0,-999.0,72,0.00,,,0.00,65,WeatherHawk,2013-11-16 13:49:00,
2013-11-16 08:54:00,46.3,35.2,30.41,South,186,0.0,-999.0,65,0.00,,,0.00,107,WeatherHawk,2013-11-16 13:54:00,
2013-11-16 08:59:00,47.5,35.1,30.41,South,181,0.0,-999.0,62,0.00,,,0.00,81,WeatherHawk,2013-11-16 13:59:00,
2013-11-16 09:04:00,47.0,33.4,30.41,South,181,0.0,-999.0,59,0.00,,,0.00,94,WeatherHawk,2013-11-16 14:04:00,
2013-11-16 09:09:00,47.1,33.1,30.41,South,181,0.0,-999.0,58,0.00,,,0.00,82,WeatherHawk,2013-11-16 14:09:00,
2013-11-16 09:14:00,47.7,33.3,30.40,South,181,0.0,-999.0,57,0.00,,,0.00,134,WeatherHawk,2013-11-16 14:14:00,
2013-11-16 09:19:00,49.1,33.1,30.40,South,181,0.0,-999.0,54,0.00,,,0.00,175,WeatherHawk,2013-11-16 14:19:00,
2013-11-16 09:24:00,48.5,29.7,30.40,South,181,0.0,-999.0,48,0.00,,,0.00,120,WeatherHawk,2013-11-16 14:24:00,
2013-11-16 09:29:00,50.2,32.8,30.40,South,181,0.0,-999.0,51,0.00,,,0.00,129,WeatherHawk,2013-11-16 14:29:00,
2013-11-16 09:34:00,50.7,32.3,30.40,South,181,0.0,-999.0,49,0.00,,,0.00,135,WeatherHawk,2013-11-16 14:34:00,
2013-11-16 09:39:00,51.7,32.1,30.40,South,181,0.0,-999.0,47,0.00,,,0.00,156,WeatherHawk,2013-11-16 14:39:00,
2013-11-16 09:44:00,52.0,29.7,30.40,South,181,0.0,-999.0,42,0.00,,,0.00,258,WeatherHawk,2013-11-16 14:44:00,
2013-11-16 09:49:00,52.3,28.7,30.39,South,181,0.0,-999.0,40,0.00,,,0.00,170,WeatherHawk,2013-11-16 14:49:00,
2013-11-16 09:54:00,51.5,29.1,30.40,SSE,162,0.0,-999.0,42,0.00,,,0.00,127,WeatherHawk,2013-11-16 14:54:00,
2013-11-16 09:59:00,52.4,29.4,30.40,West,262,0.0,-999.0,41,0.00,,,0.00,93,WeatherHawk,2013-11-16 14:59:00,
2013-11-16 10:04:00,51.8,28.2,30.39,SSE,147,1.0,-999.0,40,0.00,,,0.00,202,WeatherHawk,2013-11-16 15:04:00,
2013-11-16 10:09:00,52.9,28.6,30.39,South,175,0.0,-999.0,39,0.00,,,0.00,183,WeatherHawk,2013-11-16 15:09:00,
2013-11-16 10:14:00,54.0,28.3,30.39,South,176,0.0,-999.0,37,0.00,,,0.00,175,WeatherHawk,2013-11-16 15:14:00,
2013-11-16 10:19:00,53.2,26.3,30.39,WSW,243,0.0,-999.0,35,0.00,,,0.00,148,WeatherHawk,2013-11-16 15:19:00,
2013-11-16 10:24:00,56.3,26.8,30.39,SW,233,0.0,-999.0,32,0.00,,,0.00,261,WeatherHawk,2013-11-16 15:24:00,
2013-11-16 10:29:00,54.8,26.2,30.39,West,268,0.0,-999.0,33,0.00,,,0.00,161,WeatherHawk,2013-11-16 15:29:00,
2013-11-16 10:34:00,54.2,26.4,30.39,WSW,257,0.0,-999.0,34,0.00,,,0.00,185,WeatherHawk,2013-11-16 15:34:00,
2013-11-16 10:39:00,54.7,23.0,30.39,WSW,256,0.0,-999.0,29,0.00,,,0.00,214,WeatherHawk,2013-11-16 15:39:00,
2013-11-16 10:44:00,54.8,24.7,30.39,SSE,149,0.0,-999.0,31,0.00,,,0.00,180,WeatherHawk,2013-11-16 15:44:00,
2013-11-16 10:49:00,55.1,25.0,30.38,South,172,0.0,-999.0,31,0.00,,,0.00,351,WeatherHawk,2013-11-16 15:49:00,
2013-11-16 10:54:00,56.8,22.3,30.38,SSE,165,0.0,-999.0,26,0.00,,,0.00,307,WeatherHawk,2013-11-16 15:54:00,
2013-11-16 10:59:00,56.2,22.7,30.37,SE,129,0.0,-999.0,27,0.00,,,0.00,133,WeatherHawk,2013-11-16 15:59:00,
2013-11-16 11:04:00,56.2,23.6,30.37,South,186,4.0,-999.0,28,0.00,,,0.00,334,WeatherHawk,2013-11-16 16:04:00,
2013-11-16 11:09:00,60.9,22.9,30.37,SSW,195,0.0,-999.0,23,0.00,,,0.00,533,WeatherHawk,2013-11-16 16:09:00,
2013-11-16 11:14:00,56.8,21.4,30.36,South,185,4.0,-999.0,25,0.00,,,0.00,132,WeatherHawk,2013-11-16 16:14:00,
2013-11-16 11:19:00,56.8,22.3,30.36,SSW,212,3.0,-999.0,26,0.00,,,0.00,166,WeatherHawk,2013-11-16 16:19:00,
2013-11-16 11:24:00,58.7,18.9,30.37,ESE,121,0.0,-999.0,21,0.00,,,0.00,255,WeatherHawk,2013-11-16 16:24:00,
2013-11-16 11:29:00,58.4,20.8,30.36,SE,142,0.0,-999.0,23,0.00,,,0.00,268,WeatherHawk,2013-11-16 16:29:00,
2013-11-16 11:34:00,58.8,21.1,30.36,SSE,152,1.0,-999.0,23,0.00,,,0.00,324,WeatherHawk,2013-11-16 16:34:00,
2013-11-16 11:39:00,61.5,20.0,30.35,East,99,0.0,-999.0,20,0.00,,,0.00,342,WeatherHawk,2013-11-16 16:39:00,
2013-11-16 11:44:00,61.5,17.6,30.35,North,0,0.0,-999.0,18,0.00,,,0.00,329,WeatherHawk,2013-11-16 16:44:00,
2013-11-16 11:49:00,64.0,16.9,30.35,SW,221,0.0,-999.0,16,0.00,,,0.00,568,WeatherHawk,2013-11-16 16:49:00,
2013-11-16 11:54:00,62.4,12.6,30.33,SSE,157,0.0,-999.0,14,0.00,,,0.00,403,WeatherHawk,2013-11-16 16:54:00,
2013-11-16 11:59:00,63.1,16.2,30.33,WSW,250,1.0,-999.0,16,0.00,,,0.00,249,WeatherHawk,2013-11-16 16:59:00,
2013-11-16 12:04:00,60.9,18.3,30.32,SSE,165,2.0,-999.0,19,0.00,,,0.00,331,WeatherHawk,2013-11-16 17:04:00,
2013-11-16 12:09:00,61.8,17.9,30.32,SSW,211,0.0,-999.0,18,0.00,,,0.00,257,WeatherHawk,2013-11-16 17:09:00,
2013-11-16 12:14:00,61.8,20.3,30.32,ENE,74,2.0,-999.0,20,0.00,,,0.00,202,WeatherHawk,2013-11-16 17:14:00,
2013-11-16 12:19:00,62.9,18.8,30.30,SW,216,0.0,-999.0,18,0.00,,,0.00,285,WeatherHawk,2013-11-16 17:19:00,
2013-11-16 12:24:00,61.3,14.7,30.31,South,169,4.0,-999.0,16,0.00,,,0.00,278,WeatherHawk,2013-11-16 17:24:00,
2013-11-16 12:29:00,62.1,21.7,30.30,SSE,158,4.0,-999.0,21,0.00,,,0.00,91,WeatherHawk,2013-11-16 17:29:00,
2013-11-16 12:34:00,62.5,22.1,30.31,ENE,67,4.0,-999.0,21,0.00,,,0.00,191,WeatherHawk,2013-11-16 17:34:00,
2013-11-16 12:39:00,63.0,22.5,30.30,South,187,3.0,-999.0,21,0.00,,,0.00,253,WeatherHawk,2013-11-16 17:39:00,
2013-11-16 12:44:00,63.6,20.6,30.30,SE,143,7.0,-999.0,19,0.00,,,0.00,281,WeatherHawk,2013-11-16 17:44:00,
2013-11-16 12:49:00,63.2,22.6,30.30,South,169,4.0,-999.0,21,0.00,,,0.00,164,WeatherHawk,2013-11-16 17:49:00,
2013-11-16 12:54:00,63.1,24.7,30.30,SSE,150,3.0,-999.0,23,0.00,,,0.00,148,WeatherHawk,2013-11-16 17:54:00,
2013-11-16 12:59:00,63.9,24.3,30.30,SW,233,6.0,-999.0,22,0.00,,,0.00,244,WeatherHawk,2013-11-16 17:59:00,
2013-11-16 13:04:00,64.0,23.3,30.30,West,266,6.0,-999.0,21,0.00,,,0.00,232,WeatherHawk,2013-11-16 18:04:00,
2013-11-16 13:09:00,64.2,23.4,30.29,West,273,1.0,-999.0,21,0.00,,,0.00,221,WeatherHawk,2013-11-16 18:09:00,
2013-11-16 13:14:00,63.8,20.8,30.32,SSE,151,8.0,-999.0,19,0.00,,,0.00,239,WeatherHawk,2013-11-16 18:14:00,
2013-11-16 13:19:00,63.7,23.1,30.30,SSE,161,2.0,-999.0,21,0.00,,,0.00,209,WeatherHawk,2013-11-16 18:19:00,
2013-11-16 13:24:00,64.1,23.3,30.30,SE,146,4.0,-999.0,21,0.00,,,0.00,201,WeatherHawk,2013-11-16 18:24:00,
2013-11-16 13:29:00,63.3,20.3,30.30,SSE,147,3.0,-999.0,19,0.00,,,0.00,213,WeatherHawk,2013-11-16 18:29:00,
2013-11-16 13:34:00,63.8,22.0,30.29,South,178,3.0,-999.0,20,0.00,,,0.00,219,WeatherHawk,2013-11-16 18:34:00,
2013-11-16 13:39:00,63.4,21.7,30.28,South,183,3.0,-999.0,20,0.00,,,0.00,188,WeatherHawk,2013-11-16 18:39:00,
2013-11-16 13:44:00,64.1,23.4,30.27,SE,133,3.0,-999.0,21,0.00,,,0.00,169,WeatherHawk,2013-11-16 18:44:00,
2013-11-16 13:49:00,63.6,22.9,30.28,SSE,148,2.0,-999.0,21,0.00,,,0.00,157,WeatherHawk,2013-11-16 18:49:00,
2013-11-16 13:54:00,64.2,24.5,30.27,South,180,3.0,-999.0,22,0.00,,,0.00,176,WeatherHawk,2013-11-16 18:54:00,
2013-11-16 13:59:00,63.9,23.2,30.27,SSE,167,2.0,-999.0,21,0.00,,,0.00,158,WeatherHawk,2013-11-16 18:59:00,
2013-11-16 14:04:00,63.6,22.9,30.26,South,177,4.0,-999.0,21,0.00,,,0.00,162,WeatherHawk,2013-11-16 19:04:00,
2013-11-16 14:09:00,64.1,24.5,30.27,South,177,2.0,-999.0,22,0.00,,,0.00,138,WeatherHawk,2013-11-16 19:09:00,
2013-11-16 14:14:00,64.1,23.4,30.27,SSE,168,1.0,-999.0,21,0.00,,,0.00,145,WeatherHawk,2013-11-16 19:14:00,
2013-11-16 14:19:00,64.6,22.6,30.27,South,186,0.0,-999.0,20,0.00,,,0.00,158,WeatherHawk,2013-11-16 19:19:00,
2013-11-16 14:24:00,65.9,23.7,30.26,SSE,149,0.0,-999.0,20,0.00,,,0.00,187,WeatherHawk,2013-11-16 19:24:00,
2013-11-16 14:29:00,65.4,22.0,30.26,SSW,202,0.0,-999.0,19,0.00,,,0.00,212,WeatherHawk,2013-11-16 19:29:00,
2013-11-16 14:34:00,65.3,22.0,30.25,South,175,5.0,-999.0,19,0.00,,,0.00,303,WeatherHawk,2013-11-16 19:34:00,
2013-11-16 14:39:00,64.6,17.4,30.25,South,170,7.0,-999.0,16,0.00,,,0.00,198,WeatherHawk,2013-11-16 19:39:00,
2013-11-16 14:44:00,65.1,21.8,30.26,WSW,258,4.0,-999.0,19,0.00,,,0.00,71,WeatherHawk,2013-11-16 19:44:00,
2013-11-16 14:49:00,64.6,22.6,30.25,South,179,3.0,-999.0,20,0.00,,,0.00,48,WeatherHawk,2013-11-16 19:49:00,
2013-11-16 14:54:00,64.8,22.8,30.26,South,171,2.0,-999.0,20,0.00,,,0.00,89,WeatherHawk,2013-11-16 19:54:00,
2013-11-16 14:59:00,64.7,22.7,30.25,South,170,4.0,-999.0,20,0.00,,,0.00,139,WeatherHawk,2013-11-16 19:59:00,
2013-11-16 15:04:00,64.9,20.4,30.25,SSE,147,7.0,-999.0,18,0.00,,,0.00,309,WeatherHawk,2013-11-16 20:04:00,
2013-11-16 15:09:00,66.4,18.9,30.24,WNW,292,5.0,-999.0,16,0.00,,,0.00,224,WeatherHawk,2013-11-16 20:09:00,
2013-11-16 15:14:00,65.7,18.3,30.25,SSW,203,3.0,-999.0,16,0.00,,,0.00,191,WeatherHawk,2013-11-16 20:14:00,
2013-11-16 15:19:00,65.8,19.7,30.25,South,178,1.0,-999.0,17,0.00,,,0.00,134,WeatherHawk,2013-11-16 20:19:00,
2013-11-16 15:24:00,65.2,19.3,30.25,SSE,168,3.0,-999.0,17,0.00,,,0.00,103,WeatherHawk,2013-11-16 20:24:00,
2013-11-16 15:29:00,65.1,20.6,30.24,SSE,162,4.0,-999.0,18,0.00,,,0.00,107,WeatherHawk,2013-11-16 20:29:00,
2013-11-16 15:34:00,65.0,20.5,30.25,South,175,6.0,-999.0,18,0.00,,,0.00,70,WeatherHawk,2013-11-16 20:34:00,
2013-11-16 15:39:00,65.3,20.7,30.25,SSE,165,4.0,-999.0,18,0.00,,,0.00,87,WeatherHawk,2013-11-16 20:39:00,
2013-11-16 15:44:00,65.4,20.8,30.25,SSW,207,1.0,-999.0,18,0.00,,,0.00,93,WeatherHawk,2013-11-16 20:44:00,
2013-11-16 15:49:00,65.3,22.0,30.26,SW,215,3.0,-999.0,19,0.00,,,0.00,81,WeatherHawk,2013-11-16 20:49:00,
2013-11-16 15:54:00,65.1,20.6,30.25,South,176,1.0,-999.0,18,0.00,,,0.00,74,WeatherHawk,2013-11-16 20:54:00,
2013-11-16 15:59:00,64.9,21.7,30.26,SSE,158,0.0,-999.0,19,0.00,,,0.00,58,WeatherHawk,2013-11-16 20:59:00,
2013-11-16 16:04:00,64.9,21.7,30.24,SSE,166,2.0,-999.0,19,0.00,,,0.00,55,WeatherHawk,2013-11-16 21:04:00,
2013-11-16 16:09:00,64.9,21.7,30.26,South,184,0.0,-999.0,19,0.00,,,0.00,48,WeatherHawk,2013-11-16 21:09:00,
2013-11-16 16:14:00,65.1,23.0,30.26,South,181,3.0,-999.0,20,0.00,,,0.00,41,WeatherHawk,2013-11-16 21:14:00,
2013-11-16 16:19:00,64.9,22.9,30.26,South,172,0.0,-999.0,20,0.00,,,0.00,46,WeatherHawk,2013-11-16 21:19:00,
2013-11-16 16:24:00,64.9,22.8,30.25,South,190,0.0,-999.0,20,0.00,,,0.00,56,WeatherHawk,2013-11-16 21:24:00,
2013-11-16 16:29:00,64.9,22.9,30.25,South,181,4.0,-999.0,20,0.00,,,0.00,42,WeatherHawk,2013-11-16 21:29:00,
2013-11-16 16:34:00,64.9,22.9,30.25,SSW,198,0.0,-999.0,20,0.00,,,0.00,33,WeatherHawk,2013-11-16 21:34:00,
2013-11-16 16:39:00,64.6,22.7,30.25,NNE,20,2.0,-999.0,20,0.00,,,0.00,28,WeatherHawk,2013-11-16 21:39:00,
2013-11-16 16:44:00,64.5,23.7,30.25,South,181,0.0,-999.0,21,0.00,,,0.00,22,WeatherHawk,2013-11-16 21:44:00,
2013-11-16 16:49:00,64.4,23.6,30.25,SE,124,2.0,-999.0,21,0.00,,,0.00,23,WeatherHawk,2013-11-16 21:49:00,
2013-11-16 16:54:00,64.1,23.4,30.25,South,174,0.0,-999.0,21,0.00,,,0.00,15,WeatherHawk,2013-11-16 21:54:00,
2013-11-16 16:59:00,64.5,24.8,30.24,ESE,122,0.0,-999.0,22,0.00,,,0.00,9,WeatherHawk,2013-11-16 21:59:00,
2013-11-16 17:04:00,63.9,24.3,30.25,South,172,0.0,-999.0,22,0.00,,,0.00,6,WeatherHawk,2013-11-16 22:04:00,
2013-11-16 17:09:00,61.8,24.6,30.25,NNE,15,0.0,-999.0,24,0.00,,,0.00,4,WeatherHawk,2013-11-16 22:09:00,
2013-11-16 17:14:00,62.1,25.8,30.24,NNE,28,0.0,-999.0,25,0.00,,,0.00,4,WeatherHawk,2013-11-16 22:14:00,
2013-11-16 17:19:00,62.0,27.6,30.25,West,271,0.0,-999.0,27,0.00,,,0.00,2,WeatherHawk,2013-11-16 22:19:00,
2013-11-16 17:24:00,60.1,27.7,30.25,East,95,0.0,-999.0,29,0.00,,,0.00,1,WeatherHawk,2013-11-16 22:24:00,
2013-11-16 17:29:00,58.9,28.3,30.26,SE,141,0.0,-999.0,31,0.00,,,0.00,0,WeatherHawk,2013-11-16 22:29:00,
2013-11-16 17:34:00,58.4,30.2,30.25,ESE,111,0.0,-999.0,34,0.00,,,0.00,0,WeatherHawk,2013-11-16 22:34:00,
2013-11-16 17:40:00,58.4,30.9,30.26,SE,141,0.0,-999.0,35,0.00,,,0.00,0,WeatherHawk,2013-11-16 22:40:00,
2013-11-16 17:49:00,57.9,31.8,30.25,ESE,106,0.0,-999.0,37,0.00,,,0.00,0,WeatherHawk,2013-11-16 22:49:00,
2013-11-16 17:54:00,58.5,32.4,30.25,WNW,284,0.0,-999.0,37,0.00,,,0.00,0,WeatherHawk,2013-11-16 22:54:00,
2013-11-16 17:59:00,58.1,32.0,30.26,East,80,0.0,-999.0,37,0.00,,,0.00,0,WeatherHawk,2013-11-16 22:59:00,
2013-11-16 18:04:00,57.4,32.0,30.25,NE,50,0.0,-999.0,38,0.00,,,0.00,0,WeatherHawk,2013-11-16 23:04:00,
2013-11-16 18:09:00,58.2,33.4,30.25,WSW,256,0.0,-999.0,39,0.00,,,0.00,0,WeatherHawk,2013-11-16 23:09:00,
2013-11-16 18:14:00,57.8,33.0,30.25,NNW,333,0.0,-999.0,39,0.00,,,0.00,0,WeatherHawk,2013-11-16 23:14:00,
2013-11-16 18:19:00,57.9,31.1,30.26,WNW,283,0.0,-999.0,36,0.00,,,0.00,1,WeatherHawk,2013-11-16 23:19:00,
2013-11-16 18:24:00,57.6,31.5,30.25,NNE,33,0.0,-999.0,37,0.00,,,0.00,0,WeatherHawk,2013-11-16 23:24:00,
2013-11-16 18:29:00,58.4,32.9,30.26,South,184,0.0,-999.0,38,0.00,,,0.00,0,WeatherHawk,2013-11-16 23:29:00,
2013-11-16 18:34:00,57.5,32.7,30.26,West,264,0.0,-999.0,39,0.00,,,0.00,0,WeatherHawk,2013-11-16 23:34:00,
2013-11-16 18:39:00,56.8,32.7,30.25,East,80,0.0,-999.0,40,0.00,,,0.00,0,WeatherHawk,2013-11-16 23:39:00,
2013-11-16 18:44:00,56.3,33.0,30.25,SE,135,0.0,-999.0,41,0.00,,,0.00,0,WeatherHawk,2013-11-16 23:44:00,
2013-11-16 18:49:00,58.0,34.4,30.25,SW,219,0.0,-999.0,41,0.00,,,0.00,1,WeatherHawk,2013-11-16 23:49:00,
2013-11-16 18:59:00,60.0,33.6,30.25,WSW,238,0.0,-999.0,37,0.00,,,0.00,0,WeatherHawk,2013-11-16 23:59:00,
2013-11-16 19:04:00,57.6,31.5,30.24,ENE,60,0.0,-999.0,37,0.00,,,0.00,1,WeatherHawk,2013-11-17 00:04:00,
2013-11-16 19:09:00,57.9,31.1,30.24,East,83,0.0,-999.0,36,0.00,,,0.00,1,WeatherHawk,2013-11-17 00:09:00,
2013-11-16 19:14:00,61.4,32.0,30.24,NNE,30,1.0,-999.0,33,0.00,,,0.00,1,WeatherHawk,2013-11-17 00:14:00,
2013-11-16 19:19:00,60.7,29.9,30.24,East,94,0.0,-999.0,31,0.00,,,0.00,1,WeatherHawk,2013-11-17 00:19:00,
2013-11-16 19:24:00,58.1,29.2,30.24,West,264,0.0,-999.0,33,0.00,,,0.00,0,WeatherHawk,2013-11-17 00:24:00,
2013-11-16 19:29:00,56.0,30.1,30.24,West,280,0.0,-999.0,37,0.00,,,0.00,0,WeatherHawk,2013-11-17 00:29:00,
2013-11-16 19:34:00,56.1,31.5,30.25,West,281,0.0,-999.0,39,0.00,,,0.00,0,WeatherHawk,2013-11-17 00:34:00,
2013-11-16 19:39:00,55.8,32.5,30.25,West,281,0.0,-999.0,41,0.00,,,0.00,0,WeatherHawk,2013-11-17 00:39:00,
2013-11-16 19:44:00,54.4,31.7,30.24,NNE,12,0.0,-999.0,42,0.00,,,0.00,0,WeatherHawk,2013-11-17 00:44:00,
2013-11-16 19:49:00,56.8,35.1,30.24,North,0,0.0,-999.0,44,0.00,,,0.00,0,WeatherHawk,2013-11-17 00:49:00,
2013-11-16 19:54:00,57.0,34.2,30.24,NNW,334,0.0,-999.0,42,0.00,,,0.00,0,WeatherHawk,2013-11-17 00:54:00,
2013-11-16 19:59:00,57.2,33.7,30.25,South,174,0.0,-999.0,41,0.00,,,0.00,0,WeatherHawk,2013-11-17 00:59:00,
2013-11-16 20:04:00,55.3,32.6,30.24,NE,46,0.0,-999.0,42,0.00,,,0.00,0,WeatherHawk,2013-11-17 01:04:00,
2013-11-16 20:09:00,54.4,33.0,30.24,West,278,0.0,-999.0,44,0.00,,,0.00,0,WeatherHawk,2013-11-17 01:09:00,
2013-11-16 20:14:00,55.6,34.6,30.24,SSW,205,0.0,-999.0,45,0.00,,,0.00,0,WeatherHawk,2013-11-17 01:14:00,
2013-11-16 20:19:00,56.4,35.3,30.23,NNE,18,0.0,-999.0,45,0.00,,,0.00,0,WeatherHawk,2013-11-17 01:19:00,
2013-11-16 20:24:00,59.2,37.9,30.23,ESE,103,1.0,-999.0,45,0.00,,,0.00,0,WeatherHawk,2013-11-17 01:24:00,
2013-11-16 20:29:00,58.7,33.9,30.23,North,0,0.0,-999.0,39,0.00,,,0.00,0,WeatherHawk,2013-11-17 01:29:00,
2013-11-16 20:34:00,55.7,31.7,30.23,East,87,0.0,-999.0,40,0.00,,,0.00,0,WeatherHawk,2013-11-17 01:34:00,
2013-11-16 20:39:00,56.2,33.4,30.23,ENE,64,0.0,-999.0,42,0.00,,,0.00,0,WeatherHawk,2013-11-17 01:39:00,
2013-11-16 20:44:00,54.3,31.1,30.23,ENE,64,0.0,-999.0,41,0.00,,,0.00,0,WeatherHawk,2013-11-17 01:44:00,
2013-11-16 20:49:00,53.7,33.4,30.23,East,92,0.0,-999.0,46,0.00,,,0.00,0,WeatherHawk,2013-11-17 01:49:00,
2013-11-16 20:54:00,56.3,35.3,30.22,SSE,159,0.0,-999.0,45,0.00,,,0.00,0,WeatherHawk,2013-11-17 01:54:00,
2013-11-16 20:59:00,58.0,36.2,30.22,East,90,0.0,-999.0,44,0.00,,,0.00,1,WeatherHawk,2013-11-17 01:59:00,
2013-11-16 21:04:00,55.1,33.0,30.22,SE,136,0.0,-999.0,43,0.00,,,0.00,0,WeatherHawk,2013-11-17 02:04:00,
2013-11-16 21:09:00,56.4,35.8,30.22,SE,139,0.0,-999.0,46,0.00,,,0.00,0,WeatherHawk,2013-11-17 02:09:00,
2013-11-16 21:14:00,54.4,31.2,30.22,East,83,0.0,-999.0,41,0.00,,,0.00,0,WeatherHawk,2013-11-17 02:14:00,
2013-11-16 21:19:00,55.9,32.5,30.23,West,269,0.0,-999.0,41,0.00,,,0.00,0,WeatherHawk,2013-11-17 02:19:00,
2013-11-16 21:24:00,54.9,31.6,30.22,West,263,0.0,-999.0,41,0.00,,,0.00,0,WeatherHawk,2013-11-17 02:24:00,
2013-11-16 21:29:00,55.5,33.4,30.23,SW,232,0.0,-999.0,43,0.00,,,0.00,0,WeatherHawk,2013-11-17 02:29:00,
2013-11-16 21:34:00,56.0,32.6,30.22,East,85,0.0,-999.0,41,0.00,,,0.00,0,WeatherHawk,2013-11-17 02:34:00,
2013-11-16 21:39:00,56.4,34.1,30.23,East,85,0.0,-999.0,43,0.00,,,0.00,1,WeatherHawk,2013-11-17 02:39:00,
2013-11-16 21:44:00,55.1,33.0,30.22,SE,129,0.0,-999.0,43,0.00,,,0.00,0,WeatherHawk,2013-11-17 02:44:00,
2013-11-16 21:49:00,55.1,33.6,30.22,SE,129,0.0,-999.0,44,0.00,,,0.00,0,WeatherHawk,2013-11-17 02:49:00,
2013-11-16 21:54:00,55.1,34.1,30.22,SE,126,0.0,-999.0,45,0.00,,,0.00,0,WeatherHawk,2013-11-17 02:54:00,
2013-11-16 21:59:00,54.9,34.0,30.22,NNE,12,0.0,-999.0,45,0.00,,,0.00,0,WeatherHawk,2013-11-17 02:59:00,
2013-11-16 22:04:00,55.8,34.2,30.22,SW,215,0.0,-999.0,44,0.00,,,0.00,0,WeatherHawk,2013-11-17 03:04:00,
2013-11-16 22:09:00,55.5,33.4,30.21,East,86,0.0,-999.0,43,0.00,,,0.00,0,WeatherHawk,2013-11-17 03:09:00,
2013-11-16 22:14:00,56.3,33.5,30.22,NNW,348,0.0,-999.0,42,0.00,,,0.00,0,WeatherHawk,2013-11-17 03:14:00,
2013-11-16 22:19:00,55.9,33.1,30.21,ESE,109,0.0,-999.0,42,0.00,,,0.00,1,WeatherHawk,2013-11-17 03:19:00,
2013-11-16 22:24:00,55.9,32.5,30.21,East,92,0.0,-999.0,41,0.00,,,0.00,0,WeatherHawk,2013-11-17 03:24:00,
2013-11-16 22:29:00,56.3,31.7,30.21,North,2,0.0,-999.0,39,0.00,,,0.00,1,WeatherHawk,2013-11-17 03:29:00,
2013-11-16 22:34:00,59.1,32.2,30.21,East,97,0.0,-999.0,36,0.00,,,0.00,0,WeatherHawk,2013-11-17 03:34:00,
2013-11-16 22:39:00,56.8,30.8,30.22,NNW,341,0.0,-999.0,37,0.00,,,0.00,0,WeatherHawk,2013-11-17 03:39:00,
2013-11-16 22:44:00,57.4,32.0,30.21,NNW,328,0.0,-999.0,38,0.00,,,0.00,0,WeatherHawk,2013-11-17 03:44:00,
2013-11-16 22:49:00,57.9,29.7,30.21,WSW,257,0.0,-999.0,34,0.00,,,0.00,1,WeatherHawk,2013-11-17 03:49:00,
2013-11-16 22:54:00,58.7,30.4,30.21,South,175,0.0,-999.0,34,0.00,,,0.00,0,WeatherHawk,2013-11-17 03:54:00,
2013-11-16 22:59:00,58.0,29.8,30.20,North,5,0.0,-999.0,34,0.00,,,0.00,0,WeatherHawk,2013-11-17 03:59:00,
2013-11-16 23:04:00,57.4,29.3,30.21,ENE,76,0.0,-999.0,34,0.00,,,0.00,0,WeatherHawk,2013-11-17 04:04:00,
2013-11-16 23:09:00,57.8,30.3,30.21,North,4,0.0,-999.0,35,0.00,,,0.00,1,WeatherHawk,2013-11-17 04:09:00,
2013-11-16 23:14:00,58.7,30.4,30.21,South,188,0.0,-999.0,34,0.00,,,0.00,0,WeatherHawk,2013-11-17 04:14:00,
2013-11-16 23:19:00,59.4,29.6,30.21,East,79,0.0,-999.0,32,0.00,,,0.00,1,WeatherHawk,2013-11-17 04:19:00,
2013-11-16 23:24:00,59.5,28.0,30.21,ESE,106,0.0,-999.0,30,0.00,,,0.00,1,WeatherHawk,2013-11-17 04:24:00,
2013-11-16 23:30:00,59.2,27.0,30.21,WNW,282,0.0,-999.0,29,0.00,,,0.00,0,WeatherHawk,2013-11-17 04:30:00,
2013-11-16 23:39:00,56.7,28.6,30.22,WSW,241,0.0,-999.0,34,0.00,,,0.00,0,WeatherHawk,2013-11-17 04:39:00,
2013-11-16 23:44:00,54.7,28.2,30.22,WSW,242,0.0,-999.0,36,0.00,,,0.00,0,WeatherHawk,2013-11-17 04:44:00,
2013-11-16 23:49:00,55.0,29.2,30.22,WSW,242,0.0,-999.0,37,0.00,,,0.00,1,WeatherHawk,2013-11-17 04:49:00,
2013-11-16 23:54:00,55.5,30.3,30.21,SW,236,0.0,-999.0,38,0.00,,,0.00,1,WeatherHawk,2013-11-17 04:54:00,
2013-11-16 23:59:00,55.8,30.6,30.21,ESE,119,0.0,-999.0,38,0.00,,,0.00,0,WeatherHawk,2013-11-17 04:59:00,